Time;durP1;ratioP1;P1;durP2;ratioP2;P2;SDS_P1;SDS_P2;PMS_P1;PMS_P2;Temp;Humidity;BMP_temperature;BMP_pressure;BME280_temperature;BME280_humidity;BME280_pressure;Samples;Min_cycle;Max_cycle;Signal;HPM_P1;HPM_P2
2022/09/21 00:01:08;;;;;;;1.30;1.10;;;13.50;42.70;;;;;;4991645;28;20650;-73
2022/09/21 00:03:34;;;;;;;1.30;1.00;;;13.70;43.00;;;;;;4992471;28;20975;-72
2022/09/21 00:06:09;;;;;;;8.83;1.50;;;13.80;42.80;;;;;;4992505;28;20441;-72
2022/09/21 00:08:35;;;;;;;1.30;1.10;;;13.30;43.00;;;;;;4985466;28;20416;-72
2022/09/21 00:11:02;;;;;;;1.30;1.10;;;13.50;43.50;;;;;;4991883;28;20218;-72
2022/09/21 00:13:28;;;;;;;1.30;1.10;;;13.20;43.00;;;;;;4991840;28;20490;-72
2022/09/21 00:15:54;;;;;;;1.30;1.20;;;13.40;43.00;;;;;;4992054;28;20841;-72
2022/09/21 00:18:21;;;;;;;1.30;1.10;;;13.40;42.60;;;;;;4991808;28;20527;-72
2022/09/21 00:20:47;;;;;;;1.33;1.13;;;13.40;42.20;;;;;;4991740;28;20421;-73
2022/09/21 00:23:13;;;;;;;1.30;1.20;;;13.30;42.80;;;;;;4991978;28;20428;-72
2022/09/21 00:25:38;;;;;;;1.30;1.10;;;13.30;42.70;;;;;;4991750;28;20193;-73
2022/09/21 00:28:04;;;;;;;1.33;1.20;;;13.70;42.70;;;;;;5026390;22;20240;-68
2022/09/21 00:30:30;;;;;;;1.30;1.10;;;13.40;42.50;;;;;;5014258;28;20174;-69
2022/09/21 00:32:55;;;;;;;1.30;1.10;;;13.30;43.20;;;;;;5026337;28;20640;-69
2022/09/21 00:35:21;;;;;;;1.40;1.20;;;13.30;43.00;;;;;;5030414;28;20594;-69
2022/09/21 00:37:46;;;;;;;1.30;1.10;;;13.30;42.20;;;;;;5020978;28;20248;-69
2022/09/21 00:40:12;;;;;;;1.30;1.10;;;13.20;42.80;;;;;;5015180;28;20227;-69
2022/09/21 00:42:38;;;;;;;1.30;1.10;;;13.20;43.00;;;;;;5022264;28;20192;-69
2022/09/21 00:45:05;;;;;;;1.40;1.13;;;13.20;41.70;;;;;;5014280;28;20173;-68
2022/09/21 00:47:41;;;;;;;1.30;1.00;;;13.30;41.30;;;;;;5022145;28;20505;-68
2022/09/21 00:50:12;;;;;;;1.30;1.10;;;13.20;42.00;;;;;;5014451;28;20423;-69
2022/09/21 00:52:42;;;;;;;1.30;1.10;;;13.40;41.90;;;;;;5029153;28;20815;-69
2022/09/21 00:55:27;;;;;;;1.30;1.10;;;13.00;42.50;;;;;;5029866;28;20467;-69
2022/09/21 00:57:58;;;;;;;1.30;1.08;;;12.90;42.40;;;;;;5022152;28;20192;-69
2022/09/21 01:00:24;;;;;;;1.30;1.10;;;13.30;42.80;;;;;;5012139;28;20172;-69
2022/09/21 01:02:50;;;;;;;1.30;1.00;;;13.00;42.50;;;;;;5025721;28;20554;-69
2022/09/21 01:05:16;;;;;;;1.30;1.00;;;12.90;42.60;;;;;;5022158;28;20431;-69
2022/09/21 01:07:45;;;;;;;1.30;1.07;;;12.80;42.80;;;;;;5017811;28;20943;-69
2022/09/21 01:10:15;;;;;;;1.30;1.10;;;12.70;42.10;;;;;;5027465;28;20423;-69
2022/09/21 01:13:23;;;;;;;1.30;1.10;;;12.70;42.20;;;;;;5018814;28;20224;-69
2022/09/21 01:16:06;;;;;;;1.30;1.10;;;12.50;42.90;;;;;;5008461;28;20243;-69
2022/09/21 01:18:44;;;;;;;1.30;1.00;;;12.60;43.10;;;;;;5007133;28;20679;-69
2022/09/21 01:21:25;;;;;;;1.30;1.10;;;12.60;43.00;;;;;;5008456;28;20451;-69
2022/09/21 01:24:07;;;;;;;1.30;1.05;;;12.60;43.60;;;;;;5016507;28;20216;-69
2022/09/21 01:27:11;;;;;;;1.30;1.10;;;12.50;43.90;;;;;;5023373;28;20199;-69
2022/09/21 01:29:52;;;;;;;1.30;1.00;;;12.40;43.60;;;;;;5024386;28;20227;-69
2022/09/21 01:32:24;;;;;;;1.30;1.10;;;12.40;43.50;;;;;;5015056;28;20695;-69
2022/09/21 01:35:12;;;;;;;1.30;1.10;;;12.40;43.40;;;;;;5018273;28;20204;-69
2022/09/21 01:37:43;;;;;;;1.30;1.00;;;12.50;43.10;;;;;;5012825;28;20201;-69
2022/09/21 01:40:20;;;;;;;1.30;1.00;;;12.50;42.40;;;;;;5018987;28;20192;-68
2022/09/21 01:42:48;;;;;;;1.30;1.10;;;12.70;41.60;;;;;;5016797;28;20188;-69
2022/09/21 01:45:19;;;;;;;1.35;1.10;;;12.80;41.10;;;;;;4999971;28;20195;-69
2022/09/21 01:47:48;;;;;;;1.30;1.10;;;12.70;41.20;;;;;;5016699;28;20205;-69
2022/09/21 01:50:15;;;;;;;1.30;1.00;;;13.00;41.40;;;;;;5016828;28;20193;-69
2022/09/21 01:53:01;;;;;;;1.30;1.00;;;12.70;41.20;;;;;;5017480;28;20197;-69
2022/09/21 01:55:32;;;;;;;1.30;1.10;;;12.40;42.40;;;;;;5016157;28;20204;-69
2022/09/21 01:58:03;;;;;;;1.30;1.08;;;12.20;43.00;;;;;;5024516;28;20262;-69
2022/09/21 02:00:31;;;;;;;1.30;1.00;;;11.90;44.10;;;;;;5026833;28;20165;-69
2022/09/21 02:03:08;;;;;;;1.30;1.10;;;11.80;43.40;;;;;;5033482;28;20255;-69
2022/09/21 02:05:35;;;;;;;1.30;1.00;;;11.80;43.00;;;;;;5021402;28;20668;-69
2022/09/21 02:08:00;;;;;;;1.30;1.00;;;11.90;44.50;;;;;;5022817;28;20230;-69
2022/09/21 02:10:37;;;;;;;1.30;1.00;;;11.80;43.60;;;;;;5022138;28;20655;-69
2022/09/21 02:13:05;;;;;;;1.30;1.00;;;11.80;44.30;;;;;;5033223;28;20414;-69
2022/09/21 02:15:53;;;;;;;1.30;1.00;;;11.70;44.30;;;;;;5015520;28;20203;-69
2022/09/21 02:18:39;;;;;;;1.30;1.05;;;11.70;43.30;;;;;;5021850;28;20203;-69
2022/09/21 02:21:12;;;;;;;1.30;1.10;;;11.70;42.80;;;;;;5020585;28;20172;-69
2022/09/21 02:24:08;;;;;;;1.30;1.10;;;11.70;43.90;;;;;;5024760;28;20882;-69
2022/09/21 02:26:58;;;;;;;1.30;1.00;;;11.60;44.60;;;;;;5017084;28;20591;-69
2022/09/21 02:30:12;;;;;;;1.30;1.00;;;11.50;44.60;;;;;;5023452;28;20189;-69
2022/09/21 02:32:51;;;;;;;1.30;1.00;;;11.50;44.20;;;;;;4979952;28;20666;-69
2022/09/21 02:35:54;;;;;;;1.30;1.10;;;11.60;43.60;;;;;;4985169;28;20213;-69
2022/09/21 02:38:28;;;;;;;1.30;1.00;;;11.60;42.80;;;;;;4975773;28;20205;-69
2022/09/21 02:41:15;;;;;;;1.33;1.10;;;11.60;42.80;;;;;;4987499;28;20557;-69
2022/09/21 02:43:47;;;;;;;1.30;1.00;;;11.60;42.40;;;;;;4979907;28;20194;-69
2022/09/21 02:46:24;;;;;;;1.30;1.05;;;11.70;42.20;;;;;;4976505;28;20188;-69
2022/09/21 02:48:53;;;;;;;1.30;1.00;;;11.90;41.50;;;;;;4983153;28;20217;-69
2022/09/21 02:51:28;;;;;;;1.30;1.00;;;11.70;42.10;;;;;;4978528;28;20172;-69
2022/09/21 02:53:55;;;;;;;1.30;1.08;;;11.70;42.60;;;;;;4972630;28;20208;-69
2022/09/21 02:56:21;;;;;;;1.30;1.10;;;11.60;42.60;;;;;;4983233;28;20190;-69
2022/09/21 02:58:53;;;;;;;1.30;1.00;;;11.40;43.00;;;;;;4983052;28;20931;-69
2022/09/21 03:01:20;;;;;;;1.30;1.10;;;11.50;43.00;;;;;;4978867;28;20191;-69
2022/09/21 03:03:47;;;;;;;1.30;1.10;;;11.50;43.20;;;;;;4971735;28;20659;-69
2022/09/21 03:06:12;;;;;;;1.40;1.20;;;11.60;42.30;;;;;;4972271;28;20673;-69
2022/09/21 03:08:38;;;;;;;1.30;1.00;;;11.70;42.60;;;;;;4985841;28;20293;-69
2022/09/21 03:11:04;;;;;;;1.30;1.00;;;11.60;42.00;;;;;;5018630;28;20183;-69
2022/09/21 03:13:30;;;;;;;1.30;1.00;;;11.60;42.70;;;;;;5024044;28;20599;-69
2022/09/21 03:16:01;;;;;;;1.30;1.10;;;11.60;41.70;;;;;;5024183;28;20175;-69
2022/09/21 03:18:27;;;;;;;1.30;1.05;;;11.60;41.50;;;;;;5016184;28;20457;-69
2022/09/21 03:20:53;;;;;;;1.30;1.08;;;11.50;43.00;;;;;;5032025;28;20668;-69
2022/09/21 03:23:18;;;;;;;1.30;1.00;;;11.40;42.40;;;;;;5017308;28;20170;-69
2022/09/21 03:25:45;;;;;;;1.30;1.00;;;11.10;43.20;;;;;;5013348;28;20189;-69
2022/09/21 03:28:12;;;;;;;1.30;1.10;;;11.10;43.80;;;;;;5020647;28;20209;-69
2022/09/21 03:30:38;;;;;;;1.30;1.10;;;11.20;43.40;;;;;;5013125;28;20193;-69
2022/09/21 03:33:04;;;;;;;1.30;1.00;;;11.10;42.70;;;;;;5012771;28;20188;-69
2022/09/21 03:35:32;;;;;;;1.30;1.00;;;11.10;42.90;;;;;;5027398;28;20453;-68
2022/09/21 03:37:58;;;;;;;1.30;1.10;;;10.90;43.10;;;;;;5031679;28;20288;-68
2022/09/21 03:40:25;;;;;;;1.33;1.10;;;10.90;43.90;;;;;;5025936;28;20233;-67
2022/09/21 03:42:50;;;;;;;1.30;1.00;;;11.00;43.70;;;;;;5020661;28;20176;-68
2022/09/21 03:45:16;;;;;;;1.30;1.10;;;11.00;43.40;;;;;;5016196;28;20247;-68
2022/09/21 03:47:42;;;;;;;1.30;1.10;;;11.00;43.30;;;;;;5024077;28;20276;-69
2022/09/21 03:50:08;;;;;;;1.30;1.03;;;11.10;42.90;;;;;;5031408;28;20270;-69
2022/09/21 03:52:36;;;;;;;1.30;1.05;;;11.00;43.20;;;;;;5026330;28;21054;-69
2022/09/21 03:55:05;;;;;;;1.30;1.10;;;10.90;44.10;;;;;;5019340;28;20299;-69
2022/09/21 03:57:33;;;;;;;1.33;1.10;;;10.40;42.90;;;;;;5019694;28;20270;-68
2022/09/21 03:59:59;;;;;;;1.30;1.10;;;10.80;44.40;;;;;;5012277;28;20664;-68
2022/09/21 04:02:24;;;;;;;1.30;1.00;;;10.70;43.90;;;;;;5021906;28;20215;-69
2022/09/21 04:04:50;;;;;;;1.30;1.00;;;10.90;42.80;;;;;;5031410;28;20428;-69
2022/09/21 04:07:15;;;;;;;1.30;1.00;;;10.90;43.90;;;;;;5022601;28;20214;-68
2022/09/21 04:09:41;;;;;;;1.30;1.00;;;10.80;43.50;;;;;;5023285;28;20644;-68
2022/09/21 04:12:07;;;;;;;1.30;1.10;;;10.80;43.70;;;;;;5022803;28;20244;-69
2022/09/21 04:14:33;;;;;;;1.30;1.10;;;10.80;43.20;;;;;;5030598;28;20297;-69
2022/09/21 04:16:58;;;;;;;1.30;1.03;;;10.70;43.90;;;;;;5026053;28;20210;-69
2022/09/21 04:19:24;;;;;;;1.30;1.00;;;10.70;43.00;;;;;;5011814;28;20431;-69
2022/09/21 04:21:50;;;;;;;1.30;1.10;;;10.70;43.60;;;;;;5014540;28;20644;-68
2022/09/21 04:24:18;;;;;;;1.30;1.00;;;10.80;42.50;;;;;;5016979;28;20428;-68
2022/09/21 04:26:45;;;;;;;1.30;1.00;;;10.80;42.40;;;;;;5027542;28;20651;-69
2022/09/21 04:29:11;;;;;;;1.30;1.10;;;10.80;42.50;;;;;;5012385;28;20181;-69
2022/09/21 04:31:37;;;;;;;1.30;1.10;;;11.00;41.50;;;;;;5027334;28;20316;-68
2022/09/21 04:34:03;;;;;;;1.30;1.00;;;10.80;42.10;;;;;;5027482;28;20652;-69
2022/09/21 04:36:31;;;;;;;1.30;1.10;;;10.60;43.40;;;;;;5026087;28;20423;-68
2022/09/21 04:38:57;;;;;;;1.30;1.00;;;10.30;43.50;;;;;;5020973;28;20170;-69
2022/09/21 04:41:23;;;;;;;1.30;1.10;;;10.40;43.40;;;;;;5014722;28;20186;-69
2022/09/21 04:43:48;;;;;;;1.30;1.10;;;10.30;43.90;;;;;;5027382;28;20179;-68
2022/09/21 04:46:18;;;;;;;1.30;1.10;;;10.50;43.40;;;;;;5022701;28;20794;-68
2022/09/21 04:48:45;;;;;;;1.30;1.10;;;10.50;42.40;;;;;;5022853;28;20270;-68
2022/09/21 04:51:12;;;;;;;1.30;1.08;;;10.40;43.40;;;;;;5019748;28;20565;-69
2022/09/21 04:53:39;;;;;;;1.30;1.10;;;10.40;42.20;;;;;;5011676;28;20215;-69
2022/09/21 04:56:06;;;;;;;1.30;1.10;;;10.30;43.40;;;;;;5019973;28;20189;-69
2022/09/21 04:58:32;;;;;;;1.30;1.10;;;10.40;41.90;;;;;;5026828;28;20201;-69
2022/09/21 05:00:58;;;;;;;1.30;1.10;;;10.30;43.30;;;;;;5018687;28;20186;-69
2022/09/21 05:03:25;;;;;;;1.30;1.10;;;10.00;43.80;;;;;;5023771;28;20926;-69
2022/09/21 05:05:52;;;;;;;1.30;1.10;;;10.00;43.80;;;;;;5011425;28;20430;-68
2022/09/21 05:10:01;;;;;;;1.30;1.10;;;10.00;43.60;;;;;;5015795;28;20711;-70
2022/09/21 05:11:08;;;;;;;1.30;1.00;;;10.20;43.20;;;;;;5029830;28;20188;-69
2022/09/21 05:13:34;;;;;;;1.30;1.10;;;10.20;43.00;;;;;;5022008;28;20259;-70
2022/09/21 05:16:00;;;;;;;1.30;1.00;;;10.20;43.30;;;;;;5016038;28;20396;-69
2022/09/21 05:18:26;;;;;;;1.30;1.00;;;10.20;42.40;;;;;;5011741;28;20197;-69
2022/09/21 05:20:56;;;;;;;1.30;1.10;;;10.30;42.40;;;;;;5018682;28;20787;-70
2022/09/21 05:23:26;;;;;;;1.30;1.10;;;10.40;41.20;;;;;;5019316;28;20455;-69
2022/09/21 05:25:52;;;;;;;1.30;1.00;;;10.30;42.30;;;;;;5018250;28;20183;-69
2022/09/21 05:28:18;;;;;;;1.30;1.10;;;10.30;42.40;;;;;;5018934;28;20590;-69
2022/09/21 05:30:47;;;;;;;1.30;1.10;;;10.20;42.10;;;;;;5012222;28;20416;-69
2022/09/21 05:33:18;;;;;;;1.30;1.10;;;10.20;42.20;;;;;;5022518;28;20181;-69
2022/09/21 05:36:13;;;;;;;1.30;1.10;;;10.20;42.30;;;;;;5025096;28;20255;-70
2022/09/21 05:38:38;;;;;;;1.30;1.00;;;10.20;43.10;;;;;;5016591;28;20271;-69
2022/09/21 05:41:05;;;;;;;1.30;1.10;;;10.10;44.30;;;;;;5033493;28;20267;-69
2022/09/21 05:43:30;;;;;;;1.30;1.00;;;10.00;43.90;;;;;;5026327;28;20415;-69
2022/09/21 05:46:09;;;;;;;1.30;1.10;;;10.10;44.20;;;;;;5025928;28;20180;-70
2022/09/21 05:48:41;;;;;;;1.30;1.10;;;10.20;45.00;;;;;;5017639;28;20660;-70
2022/09/21 05:51:13;;;;;;;1.30;1.00;;;10.20;44.10;;;;;;5027814;28;20734;-69
2022/09/21 05:54:03;;;;;;;1.30;1.10;;;10.20;44.30;;;;;;5014493;28;20189;-70
2022/09/21 05:56:36;;;;;;;1.30;1.00;;;10.30;44.00;;;;;;5022593;28;20234;-69
2022/09/21 05:59:21;;;;;;;1.30;1.05;;;10.40;44.10;;;;;;5012004;28;20533;-70
2022/09/21 06:02:00;;;;;;;1.35;1.15;;;10.40;44.00;;;;;;5024636;28;20173;-69
2022/09/21 06:04:26;;;;;;;1.30;1.00;;;10.40;43.90;;;;;;5018909;28;20196;-69
2022/09/21 06:06:51;;;;;;;1.30;1.00;;;10.40;43.70;;;;;;5027711;28;20200;-69
2022/09/21 06:09:17;;;;;;;1.30;1.00;;;10.30;43.70;;;;;;5022664;28;20320;-69
2022/09/21 06:11:42;;;;;;;1.30;1.00;;;10.20;43.80;;;;;;5022038;28;20189;-69
2022/09/21 06:14:08;;;;;;;1.30;1.10;;;9.80;46.40;;;;;;5017783;28;20559;-70
2022/09/21 06:16:38;;;;;;;1.30;1.00;;;9.70;47.80;;;;;;5025973;28;20178;-69
2022/09/21 06:19:04;;;;;;;1.30;1.00;;;9.90;47.20;;;;;;5023093;28;20172;-69
2022/09/21 06:21:30;;;;;;;1.30;1.10;;;10.00;45.50;;;;;;5020856;28;20260;-69
2022/09/21 06:23:55;;;;;;;1.30;1.00;;;10.00;44.60;;;;;;5013858;28;20309;-70
2022/09/21 06:26:21;;;;;;;1.30;1.00;;;9.90;46.10;;;;;;5014664;28;20192;-69
2022/09/21 06:28:46;;;;;;;1.30;1.10;;;9.70;47.30;;;;;;5033223;22;20239;-75
2022/09/21 06:31:12;;;;;;;1.50;1.30;;;9.20;49.30;;;;;;4993182;28;20186;-75
2022/09/21 06:33:37;;;;;;;1.30;1.00;;;9.40;50.00;;;;;;4993933;28;20567;-75
2022/09/21 06:36:03;;;;;;;1.40;1.20;;;9.50;49.10;;;;;;5010889;28;20215;-75
2022/09/21 06:38:29;;;;;;;1.30;1.10;;;9.30;51.00;;;;;;5013647;28;20201;-75
2022/09/21 06:40:59;;;;;;;1.30;1.10;;;9.60;50.30;;;;;;5003644;28;20177;-75
2022/09/21 06:43:25;;;;;;;1.30;1.10;;;9.80;49.80;;;;;;5001569;28;20224;-75
2022/09/21 06:45:55;;;;;;;1.30;1.10;;;9.70;49.30;;;;;;5004207;28;20194;-75
2022/09/21 06:48:21;;;;;;;1.30;1.10;;;9.80;50.30;;;;;;5001945;28;20200;-75
2022/09/21 06:50:47;;;;;;;1.30;1.10;;;10.20;48.20;;;;;;5001693;28;20190;-76
2022/09/21 06:53:13;;;;;;;1.30;1.00;;;10.30;46.60;;;;;;4999452;28;20232;-76
2022/09/21 06:55:39;;;;;;;1.30;1.10;;;10.50;46.30;;;;;;4997802;28;20547;-75
2022/09/21 06:58:05;;;;;;;1.30;1.00;;;10.60;45.70;;;;;;5005252;28;20676;-75
2022/09/21 07:00:31;;;;;;;1.30;1.03;;;10.80;45.00;;;;;;5008225;28;20515;-76
2022/09/21 07:02:57;;;;;;;1.30;1.10;;;10.90;44.80;;;;;;5006983;28;20348;-75
2022/09/21 07:05:23;;;;;;;1.30;1.10;;;11.00;44.40;;;;;;4996299;28;20365;-75
2022/09/21 07:07:49;;;;;;;1.30;1.10;;;10.80;44.80;;;;;;5005965;28;20720;-75
2022/09/21 07:10:14;;;;;;;1.30;1.10;;;11.10;45.50;;;;;;5004154;28;20316;-75
2022/09/21 07:12:40;;;;;;;1.30;1.07;;;11.10;43.50;;;;;;4993440;28;20308;-75
2022/09/21 07:15:08;;;;;;;1.30;1.10;;;11.40;43.80;;;;;;4999649;28;20229;-75
2022/09/21 07:17:35;;;;;;;1.30;1.10;;;11.90;44.90;;;;;;5003140;28;20430;-75
2022/09/21 07:20:01;;;;;;;1.30;1.00;;;11.30;44.10;;;;;;5006343;28;20221;-75
2022/09/21 07:22:33;;;;;;;1.30;1.10;;;11.20;44.40;;;;;;4996870;28;20184;-76
2022/09/21 07:24:59;;;;;;;1.30;1.10;;;11.40;44.30;;;;;;5003526;28;20275;-75
2022/09/21 07:27:26;;;;;;;1.30;1.00;;;11.60;44.10;;;;;;4998068;28;20265;-75
2022/09/21 07:29:52;;;;;;;1.30;1.10;;;11.80;44.10;;;;;;4996414;28;20499;-76
2022/09/21 07:32:18;;;;;;;1.30;1.10;;;11.70;44.50;;;;;;5003648;28;20229;-75
2022/09/21 07:34:45;;;;;;;1.30;1.10;;;11.50;44.70;;;;;;5009945;28;20247;-75
2022/09/21 07:37:10;;;;;;;1.30;1.00;;;11.80;44.00;;;;;;5006556;28;20181;-75
2022/09/21 07:39:37;;;;;;;1.30;1.10;;;11.20;45.20;;;;;;5004488;28;20197;-75
2022/09/21 07:42:04;;;;;;;1.30;1.10;;;11.10;47.30;;;;;;4999879;28;21228;-75
2022/09/21 07:44:29;;;;;;;1.30;1.00;;;11.00;48.70;;;;;;5008252;28;20180;-75
2022/09/21 07:46:55;;;;;;;1.30;1.03;;;11.40;46.90;;;;;;4996050;28;20268;-75
2022/09/21 07:49:20;;;;;;;1.30;1.10;;;11.50;46.30;;;;;;4998474;28;20558;-75
2022/09/21 07:51:46;;;;;;;1.30;1.00;;;12.10;45.20;;;;;;5001286;28;20221;-75
2022/09/21 07:54:12;;;;;;;1.30;1.00;;;11.70;45.60;;;;;;5010480;28;20204;-75
2022/09/21 07:56:38;;;;;;;1.30;1.10;;;11.50;46.80;;;;;;5004432;28;20676;-75
2022/09/21 07:59:04;;;;;;;1.30;1.23;;;11.00;46.60;;;;;;5003572;28;20194;-75
2022/09/21 08:01:32;;;;;;;1.30;1.20;;;12.00;46.10;;;;;;5004112;28;20713;-75
2022/09/21 08:03:58;;;;;;;1.30;1.10;;;11.80;45.30;;;;;;5003037;28;20216;-75
2022/09/21 08:06:28;;;;;;;1.30;1.20;;;11.60;47.50;;;;;;5003806;28;20431;-75
2022/09/21 08:08:53;;;;;;;1.30;1.10;;;12.20;46.30;;;;;;5010084;28;20459;-75
2022/09/21 08:11:24;;;;;;;1.30;1.00;;;12.80;44.80;;;;;;5000130;28;20178;-75
2022/09/21 08:13:55;;;;;;;1.30;1.10;;;12.90;42.10;;;;;;4999978;28;20174;-76
2022/09/21 08:16:21;;;;;;;1.30;1.10;;;13.10;42.10;;;;;;4985555;28;20933;-75
2022/09/21 08:18:47;;;;;;;1.30;1.10;;;13.30;40.50;;;;;;5000496;28;20445;-75
2022/09/21 08:21:13;;;;;;;1.40;1.20;;;12.40;43.00;;;;;;4999687;28;20471;-75
2022/09/21 08:23:41;;;;;;;1.30;1.13;;;12.40;43.90;;;;;;5005453;28;20189;-75
2022/09/21 08:26:11;;;;;;;1.30;1.10;;;13.00;42.90;;;;;;4992816;28;20202;-76
2022/09/21 08:28:37;;;;;;;1.30;1.00;;;13.60;42.40;;;;;;4997925;28;20455;-76
2022/09/21 08:31:07;;;;;;;1.30;1.10;;;13.80;39.20;;;;;;5000348;28;20461;-75
2022/09/21 08:33:33;;;;;;;1.30;1.03;;;13.70;39.10;;;;;;5018410;28;20423;-76
2022/09/21 08:36:00;;;;;;;1.30;1.10;;;14.00;39.50;;;;;;5003647;28;20457;-75
2022/09/21 08:38:30;;;;;;;1.30;1.10;;;14.00;38.70;;;;;;5003217;28;20436;-76
2022/09/21 08:40:56;;;;;;;1.30;1.20;;;14.60;40.60;;;;;;5003268;28;20950;-76
2022/09/21 08:43:35;;;;;;;1.30;1.10;;;14.80;39.50;;;;;;4992266;28;20421;-76
2022/09/21 08:46:08;;;;;;;1.30;1.10;;;14.60;39.10;;;;;;4999852;28;20266;-75
2022/09/21 08:48:41;;;;;;;1.30;1.10;;;14.20;38.60;;;;;;5003768;28;20950;-76
2022/09/21 08:51:12;;;;;;;1.30;1.10;;;13.80;40.80;;;;;;5002312;28;20419;-76
2022/09/21 08:53:41;;;;;;;1.30;1.10;;;14.40;41.50;;;;;;4999270;28;20491;-76
2022/09/21 08:56:15;;;;;;;1.30;1.10;;;14.30;38.20;;;;;;5007670;28;20424;-76
2022/09/21 08:58:41;;;;;;;1.30;1.10;;;14.60;40.00;;;;;;4993417;28;20437;-76
2022/09/21 09:01:10;;;;;;;1.30;1.07;;;15.10;38.10;;;;;;5003198;28;20418;-76
2022/09/21 09:03:52;;;;;;;1.30;1.00;;;15.40;37.40;;;;;;5007506;28;20453;-76
2022/09/21 09:06:17;;;;;;;1.30;1.10;;;15.70;36.80;;;;;;5007037;28;20813;-76
2022/09/21 09:08:50;;;;;;;1.30;1.20;;;15.90;37.30;;;;;;4992027;28;20437;-76
2022/09/21 09:11:26;;;;;;;1.30;1.00;;;15.60;36.50;;;;;;5006439;28;20679;-76
2022/09/21 09:14:12;;;;;;;1.30;1.10;;;15.50;37.50;;;;;;4988984;28;20420;-76
2022/09/21 09:17:02;;;;;;;1.30;1.10;;;15.90;37.50;;;;;;5002594;28;20417;-75
2022/09/21 09:19:42;;;;;;;1.30;1.20;;;15.40;36.60;;;;;;5010232;28;20438;-75
2022/09/21 09:22:13;;;;;;;1.30;1.10;;;14.70;40.40;;;;;;4996227;28;20422;-75
2022/09/21 09:24:47;;;;;;;1.30;1.07;;;14.90;38.20;;;;;;5009447;28;20477;-76
2022/09/21 09:27:24;;;;;;;1.30;1.10;;;15.00;39.60;;;;;;4996752;28;20782;-76
2022/09/21 09:30:08;;;;;;;1.30;1.00;;;15.80;39.40;;;;;;4999339;28;20482;-76
2022/09/21 09:32:49;;;;;;;1.30;1.20;;;15.70;36.90;;;;;;4999799;28;20485;-76
2022/09/21 09:35:21;;;;;;;1.30;1.00;;;15.60;38.60;;;;;;5003643;28;20503;-76
2022/09/21 09:37:48;;;;;;;1.30;1.10;;;16.10;37.70;;;;;;5001115;28;20432;-76
2022/09/21 09:40:13;;;;;;;1.30;1.10;;;16.40;36.90;;;;;;5004857;28;20413;-76
2022/09/21 09:43:04;;;;;;;1.30;1.10;;;16.90;35.90;;;;;;4998936;28;20430;-76
2022/09/21 09:46:00;;;;;;;1.30;1.10;;;16.60;35.30;;;;;;4999342;28;20604;-76
2022/09/21 09:48:37;;;;;;;1.30;1.10;;;15.90;37.70;;;;;;4987494;28;20453;-76
2022/09/21 09:51:03;;;;;;;1.30;1.10;;;16.20;37.40;;;;;;4990765;28;20435;-76
2022/09/21 09:53:30;;;;;;;1.30;1.10;;;16.80;35.60;;;;;;5003409;28;20490;-76
2022/09/21 09:55:57;;;;;;;1.30;1.10;;;16.70;35.10;;;;;;4999435;28;20212;-76
2022/09/21 09:58:48;;;;;;;1.30;1.20;;;16.80;35.90;;;;;;4999225;28;20503;-76
2022/09/21 10:01:56;;;;;;;1.30;1.13;;;17.30;33.60;;;;;;4991197;28;20847;-76
2022/09/21 10:04:23;;;;;;;1.30;1.10;;;17.90;32.60;;;;;;4985318;28;20496;-76
2022/09/21 10:06:49;;;;;;;1.30;1.20;;;18.10;33.50;;;;;;5001624;28;20412;-77
2022/09/21 10:09:30;;;;;;;1.30;1.17;;;18.60;31.50;;;;;;4998671;28;20207;-76
2022/09/21 10:12:24;;;;;;;1.30;1.10;;;18.60;30.30;;;;;;4990898;28;20429;-76
2022/09/21 10:14:52;;;;;;;1.30;1.00;;;18.60;30.80;;;;;;5005953;28;21085;-76
2022/09/21 10:17:19;;;;;;;1.30;1.10;;;18.20;32.20;;;;;;4996946;28;20447;-76
2022/09/21 10:19:45;;;;;;;1.30;1.20;;;18.40;30.70;;;;;;5005786;28;20456;-76
2022/09/21 10:22:18;;;;;;;1.30;1.10;;;18.80;32.10;;;;;;4994489;28;20428;-76
2022/09/21 10:24:55;;;;;;;1.30;1.10;;;18.70;31.30;;;;;;5001472;28;20450;-76
2022/09/21 10:27:25;;;;;;;1.30;1.13;;;19.00;31.10;;;;;;4990465;28;20919;-76
2022/09/21 10:29:51;;;;;;;1.30;1.13;;;19.20;29.90;;;;;;4995300;28;20442;-76
2022/09/21 10:32:18;;;;;;;1.70;1.30;;;19.40;30.60;;;;;;5001763;28;20499;-76
2022/09/21 10:35:09;;;;;;;1.30;1.10;;;19.80;30.00;;;;;;5001759;28;20246;-76
2022/09/21 10:37:37;;;;;;;1.30;1.10;;;19.80;29.90;;;;;;4995829;28;20837;-76
2022/09/21 10:40:21;;;;;;;1.30;1.20;;;19.70;29.10;;;;;;5000622;28;20450;-76
2022/09/21 10:42:49;;;;;;;1.30;1.20;;;18.90;29.60;;;;;;5004306;28;20448;-76
2022/09/21 10:45:17;;;;;;;1.30;1.10;;;19.00;31.30;;;;;;5003346;28;20431;-76
2022/09/21 10:47:50;;;;;;;1.30;1.20;;;19.70;29.70;;;;;;4994648;28;20446;-76
2022/09/21 10:50:37;;;;;;;1.30;1.13;;;20.50;28.70;;;;;;5003352;28;20440;-77
2022/09/21 10:53:08;;;;;;;1.30;1.20;;;21.20;28.30;;;;;;5005157;28;20430;-77
2022/09/21 10:55:43;;;;;;;1.30;1.20;;;21.70;25.90;;;;;;5009674;28;20864;-77
2022/09/21 10:58:11;;;;;;;1.30;1.20;;;22.00;24.80;;;;;;5009596;28;20446;-77
2022/09/21 11:00:50;;;;;;;1.30;1.20;;;21.60;25.20;;;;;;4994861;28;20642;-76
2022/09/21 11:03:27;;;;;;;1.30;1.20;;;20.50;26.10;;;;;;5001957;28;20431;-76
2022/09/21 11:05:57;;;;;;;1.30;1.20;;;20.00;28.00;;;;;;5012823;28;20512;-76
2022/09/21 11:08:32;;;;;;;1.30;1.10;;;20.10;28.10;;;;;;4996757;28;20505;-76
2022/09/21 11:11:26;;;;;;;1.30;1.20;;;20.20;27.50;;;;;;5027394;28;20434;-76
2022/09/21 11:14:18;;;;;;;1.30;1.20;;;20.10;27.40;;;;;;4994411;28;20437;-76
2022/09/21 11:16:59;;;;;;;1.30;1.20;;;20.40;26.30;;;;;;4996692;28;20419;-76
2022/09/21 11:19:50;;;;;;;1.30;1.20;;;20.20;26.10;;;;;;5003094;28;20452;-76
2022/09/21 11:22:30;;;;;;;1.30;1.10;;;20.50;26.30;;;;;;5011822;28;20427;-76
2022/09/21 11:25:02;;;;;;;1.30;1.20;;;21.00;25.20;;;;;;5004553;28;20439;-76
2022/09/21 11:27:34;;;;;;;1.30;1.20;;;20.70;24.10;;;;;;5003619;28;20463;-77
2022/09/21 11:30:06;;;;;;;1.30;1.20;;;20.50;24.40;;;;;;5012111;28;20424;-76
2022/09/21 11:32:44;;;;;;;1.30;1.10;;;20.80;24.40;;;;;;5003783;28;20510;-76
2022/09/21 11:35:25;;;;;;;1.30;1.10;;;20.80;23.70;;;;;;5006922;28;20501;-76
2022/09/21 11:38:09;;;;;;;1.30;1.13;;;21.30;22.10;;;;;;4994614;28;20461;-77
2022/09/21 11:41:04;;;;;;;1.30;1.10;;;21.20;23.00;;;;;;5003767;28;20428;-76
2022/09/21 11:43:48;;;;;;;1.30;1.20;;;21.30;23.60;;;;;;4999634;28;20436;-76
2022/09/21 11:46:26;;;;;;;1.30;1.20;;;20.70;22.90;;;;;;4998825;28;20926;-76
2022/09/21 11:48:58;;;;;;;1.30;1.20;;;20.30;24.00;;;;;;4995845;28;20486;-76
2022/09/21 11:51:39;;;;;;;1.30;1.13;;;20.70;24.40;;;;;;4997551;28;20428;-76
2022/09/21 11:54:33;;;;;;;1.30;1.10;;;21.20;24.70;;;;;;4993060;28;20475;-77
2022/09/21 11:57:27;;;;;;;1.40;1.23;;;21.50;23.00;;;;;;5001234;28;20448;-76
2022/09/21 12:00:14;;;;;;;1.30;1.27;;;21.00;21.70;;;;;;4980796;28;20460;-77
2022/09/21 12:02:52;;;;;;;1.30;1.10;;;20.60;22.10;;;;;;5011105;28;20431;-76
2022/09/21 12:05:54;;;;;;;1.30;1.17;;;20.50;22.90;;;;;;5005654;28;20424;-76
2022/09/21 12:08:52;;;;;;;1.30;1.20;;;20.70;23.10;;;;;;4990688;28;20503;-76
2022/09/21 12:11:36;;;;;;;1.30;1.20;;;20.80;21.10;;;;;;4997966;28;20502;-76
2022/09/21 12:14:02;;;;;;;1.30;1.10;;;21.50;20.70;;;;;;5000747;28;20787;-76
2022/09/21 12:17:01;;;;;;;1.30;1.10;;;21.40;21.10;;;;;;4999139;28;20420;-77
2022/09/21 12:19:36;;;;;;;1.30;1.10;;;21.80;20.50;;;;;;4994380;28;20273;-77
2022/09/21 12:22:27;;;;;;;1.30;1.20;;;22.30;19.70;;;;;;4994896;28;20565;-77
2022/09/21 12:25:01;;;;;;;1.30;1.20;;;22.40;19.40;;;;;;4995072;28;20432;-77
2022/09/21 12:27:42;;;;;;;1.30;1.10;;;22.30;19.60;;;;;;5001276;28;20443;-77
2022/09/21 12:30:28;;;;;;;1.30;1.13;;;22.30;20.30;;;;;;4992804;28;20428;-76
2022/09/21 12:33:05;;;;;;;1.30;1.20;;;22.30;20.10;;;;;;5007634;28;20878;-76
2022/09/21 12:38:58;;;;;;;1.30;1.10;;;22.70;19.20;;;;;;5087314;22;20526;-70
2022/09/21 12:41:36;;;;;;;1.30;1.30;;;22.80;18.50;;;;;;5050336;28;20909;-70
2022/09/21 12:44:32;;;;;;;1.30;1.20;;;23.00;20.10;;;;;;5049224;28;20411;-70
2022/09/21 12:47:10;;;;;;;1.30;1.10;;;23.20;18.80;;;;;;5042504;28;20973;-70
2022/09/21 12:49:45;;;;;;;1.30;1.20;;;22.90;17.70;;;;;;5044059;28;20445;-71
2022/09/21 12:52:20;;;;;;;1.30;1.27;;;23.50;18.60;;;;;;5033793;28;20422;-70
2022/09/21 12:55:29;;;;;;;1.30;1.20;;;23.10;18.50;;;;;;5044476;28;20468;-70
2022/09/21 12:58:18;;;;;;;1.30;1.10;;;22.70;18.20;;;;;;5045567;28;20951;-70
2022/09/21 13:01:05;;;;;;;1.30;1.20;;;22.40;17.90;;;;;;5043788;28;20424;-70
2022/09/21 13:04:02;;;;;;;1.30;1.10;;;21.90;19.60;;;;;;5050738;28;20427;-70
2022/09/21 13:06:28;;;;;;;1.30;1.20;;;21.30;20.10;;;;;;5034480;28;20428;-70
2022/09/21 13:08:55;;;;;;;1.30;1.20;;;21.00;21.40;;;;;;5044057;28;20829;-70
2022/09/21 13:11:21;;;;;;;1.30;1.10;;;21.00;21.90;;;;;;5039754;28;20226;-70
2022/09/21 13:13:52;;;;;;;1.30;1.20;;;21.00;20.40;;;;;;5046327;28;20468;-70
2022/09/21 13:16:28;;;;;;;1.30;1.10;;;21.30;20.60;;;;;;5047653;28;20454;-70
2022/09/21 13:19:00;;;;;;;1.30;1.20;;;21.30;20.10;;;;;;5049475;28;20465;-70